Time;durP1;ratioP1;P1;durP2;ratioP2;P2;SDS_P1;SDS_P2;PMS_P1;PMS_P2;Temp;Humidity;BMP_temperature;BMP_pressure;BME280_temperature;BME280_humidity;BME280_pressure;Samples;Min_cycle;Max_cycle;Signal;HPM_P1;HPM_P2
2022/07/24 00:00:15;;;;;;;;;14.75;14.25;;;;;26.06;44.94;101540.00;4900968;29;45919;-40
2022/07/24 00:02:41;;;;;;;;;13.75;13.75;;;;;26.06;44.93;101541.81;4901456;28;45268;-44
2022/07/24 00:05:08;;;;;;;;;15.00;15.00;;;;;26.07;45.10;101544.38;4900861;29;45296;-41
2022/07/24 00:07:36;;;;;;;;;16.00;14.00;;;;;26.06;45.25;101540.00;4901603;28;45812;-44
2022/07/24 00:10:04;;;;;;;;;15.25;13.75;;;;;26.05;45.41;101543.63;4900919;29;46111;-41
2022/07/24 00:12:29;;;;;;;;;16.50;15.50;;;;;26.03;45.75;101539.38;4901119;29;45317;-42
2022/07/24 00:14:55;;;;;;;;;16.25;15.25;;;;;26.03;44.95;101545.53;4900936;29;45296;-45
2022/07/24 00:17:20;;;;;;;;;14.25;14.00;;;;;26.03;45.47;101542.03;4901692;29;45493;-43
2022/07/24 00:19:45;;;;;;;;;14.00;13.25;;;;;26.03;45.38;101542.03;4900900;29;46466;-41
2022/07/24 00:22:11;;;;;;;;;13.50;13.00;;;;;26.03;45.58;101547.34;4900715;29;45254;-48
2022/07/24 00:24:36;;;;;;;;;16.75;15.75;;;;;26.02;45.20;101548.28;4900710;29;47335;-45
2022/07/24 00:27:02;;;;;;;;;16.50;14.75;;;;;26.01;45.50;101541.28;4900937;29;45234;-43
2022/07/24 00:29:28;;;;;;;;;17.00;15.50;;;;;26.00;45.58;101542.22;4900741;29;46009;-42
2022/07/24 00:31:53;;;;;;;;;16.00;15.00;;;;;26.00;45.23;101534.25;4900948;29;45372;-42
2022/07/24 00:34:19;;;;;;;;;15.25;15.25;;;;;26.00;45.13;101536.91;4901241;29;45392;-43
2022/07/24 00:36:44;;;;;;;;;17.75;15.50;;;;;25.99;45.01;101533.41;4901052;29;45478;-43
2022/07/24 00:39:11;;;;;;;;;16.00;13.00;;;;;25.97;45.36;101521.19;4900514;29;45412;-46
2022/07/24 00:41:36;;;;;;;;;17.00;15.75;;;;;25.96;45.63;101520.34;4899308;29;45950;-45
2022/07/24 00:44:04;;;;;;;;;18.00;15.25;;;;;25.97;45.48;101513.22;4899447;29;45447;-41
2022/07/24 00:46:30;;;;;;;;;16.00;14.50;;;;;25.94;45.18;101508.97;4900983;29;45498;-42
2022/07/24 00:48:55;;;;;;;;;19.50;16.00;;;;;25.93;45.58;101499.28;4899840;29;46577;-41
2022/07/24 00:51:21;;;;;;;;;16.25;14.75;;;;;25.93;45.49;101496.63;4900849;29;45407;-39
2022/07/24 00:53:46;;;;;;;;;20.75;17.00;;;;;25.90;45.78;101497.69;4900685;29;45173;-42
2022/07/24 00:56:13;;;;;;;;;16.00;15.00;;;;;25.90;45.37;101495.03;4900559;29;45467;-42
2022/07/24 00:58:39;;;;;;;;;16.00;15.00;;;;;25.89;45.72;101496.00;4900598;29;45283;-41
2022/07/24 01:01:04;;;;;;;;;15.50;14.50;;;;;25.89;45.72;101490.69;4900238;29;45479;-41
2022/07/24 01:03:30;;;;;;;;;10.00;10.00;;;;;25.88;45.39;101483.69;4900466;29;45344;-41
2022/07/24 01:05:55;;;;;;;;;13.75;13.75;;;;;25.86;45.19;101479.44;4900516;29;45393;-44
2022/07/24 01:08:22;;;;;;;;;15.50;15.50;;;;;25.87;45.81;101489.09;4900569;28;46561;-43
2022/07/24 01:10:48;;;;;;;;;15.00;15.00;;;;;25.84;45.40;101476.03;4900289;29;45336;-48
2022/07/24 01:13:13;;;;;;;;;17.75;15.50;;;;;25.85;45.31;101488.34;4900216;29;45357;-42
2022/07/24 01:15:39;;;;;;;;;17.00;13.50;;;;;25.84;45.74;101487.50;4900447;29;45400;-42
2022/07/24 01:18:04;;;;;;;;;14.25;14.25;;;;;25.82;45.61;101489.41;4899870;29;46172;-39
2022/07/24 01:20:30;;;;;;;;;13.00;12.00;;;;;25.83;45.57;101492.91;4900172;29;45407;-39
2022/07/24 01:22:55;;;;;;;;;15.75;14.25;;;;;25.81;45.59;101490.38;4900049;29;45319;-40
2022/07/24 01:25:20;;;;;;;;;15.25;14.00;;;;;25.81;45.19;101498.34;4900593;29;45342;-45
2022/07/24 01:27:46;;;;;;;;;15.00;13.00;;;;;25.79;45.24;101500.25;4900171;29;45357;-43
2022/07/24 01:30:11;;;;;;;;;12.50;11.75;;;;;25.78;45.37;101501.19;4899729;29;45257;-42
2022/07/24 01:32:37;;;;;;;;;16.00;13.50;;;;;25.78;45.45;101498.53;4900052;29;45304;-48
2022/07/24 01:35:04;;;;;;;;;14.00;12.50;;;;;25.78;45.40;101498.53;4899895;29;45327;-41
2022/07/24 01:37:29;;;;;;;;;15.50;14.25;;;;;25.76;45.73;101493.34;4899768;29;45416;-44
2022/07/24 01:39:54;;;;;;;;;18.25;16.75;;;;;25.76;45.61;101498.66;4899528;29;45269;-41
2022/07/24 01:42:20;;;;;;;;;13.00;12.00;;;;;25.75;45.27;101490.75;4900313;29;45424;-45
2022/07/24 01:44:46;;;;;;;;;15.00;14.50;;;;;25.74;45.80;101492.59;4900054;29;45410;-41
2022/07/24 01:47:11;;;;;;;;;17.25;12.50;;;;;25.75;45.72;101498.72;4882392;29;46942;-44
2022/07/24 01:49:36;;;;;;;;;16.75;15.25;;;;;25.75;45.42;101498.72;4899762;29;45509;-45
2022/07/24 01:52:02;;;;;;;;;14.50;14.50;;;;;25.73;45.80;101496.19;4899667;29;45296;-45
2022/07/24 01:54:27;;;;;;;;;13.75;12.00;;;;;25.73;45.67;101493.53;4899776;29;45654;-42
2022/07/24 01:56:53;;;;;;;;;17.50;14.50;;;;;25.72;45.57;101491.00;4899672;29;45336;-43
2022/07/24 01:59:18;;;;;;;;;14.00;12.00;;;;;25.71;45.55;101486.63;4899753;29;45357;-41
2022/07/24 02:01:43;;;;;;;;;14.50;12.50;;;;;25.70;45.08;101484.94;4899454;29;45463;-45
2022/07/24 02:04:09;;;;;;;;;16.00;15.50;;;;;25.68;45.70;101486.84;4899182;29;45588;-41
2022/07/24 02:06:34;;;;;;;;;16.75;14.00;;;;;25.67;45.77;101483.34;4899369;28;46136;-42
2022/07/24 02:08:59;;;;;;;;;13.50;13.50;;;;;25.67;45.58;101493.97;4882264;29;45475;-47
2022/07/24 02:11:25;;;;;;;;;13.00;13.00;;;;;25.67;45.84;101485.13;4899589;29;45313;-45
2022/07/24 02:13:50;;;;;;;;;14.75;13.00;;;;;25.67;45.32;101485.13;4900017;29;45535;-50
2022/07/24 02:16:16;;;;;;;;;15.00;15.00;;;;;25.66;45.72;101484.28;4898946;29;49922;-46
2022/07/24 02:18:41;;;;;;;;;16.00;13.25;;;;;25.66;45.48;101478.13;4899367;29;45357;-43
2022/07/24 02:21:06;;;;;;;;;15.50;12.75;;;;;25.66;45.33;101486.09;4899408;28;45368;-44
2022/07/24 02:23:31;;;;;;;;;13.50;12.00;;;;;25.65;45.77;101479.06;4899513;29;45304;-40
2022/07/24 02:25:57;;;;;;;;;17.00;14.00;;;;;25.63;45.39;101474.72;4899092;29;45225;-43
2022/07/24 02:28:22;;;;;;;;;15.00;14.25;;;;;25.63;45.15;101469.41;4899649;29;45225;-45
2022/07/24 02:30:48;;;;;;;;;14.25;13.00;;;;;25.62;45.24;101462.41;4899417;29;45249;-43
2022/07/24 02:33:16;;;;;;;;;15.00;14.00;;;;;25.60;45.05;101466.97;4899376;29;46086;-41
2022/07/24 02:35:41;;;;;;;;;15.50;13.50;;;;;25.59;45.16;101464.41;4898978;29;45399;-41
2022/07/24 02:38:07;;;;;;;;;18.75;13.00;;;;;25.58;45.70;101460.91;4897525;28;45478;-49
2022/07/24 02:40:32;;;;;;;;;15.00;13.75;;;;;25.58;45.43;101460.91;4899132;29;45448;-43
2022/07/24 02:42:57;;;;;;;;;13.25;13.00;;;;;25.57;45.13;101450.41;4899092;29;45323;-44
2022/07/24 02:45:23;;;;;;;;;14.25;12.50;;;;;25.56;45.07;101451.38;4899217;29;46301;-41
2022/07/24 02:47:53;;;;;;;;;14.25;12.25;;;;;25.55;45.33;101449.66;4898965;29;45461;-45
2022/07/24 02:50:21;;;;;;;;;11.50;11.50;;;;;25.52;45.20;101445.38;4899477;29;45420;-41
2022/07/24 02:52:47;;;;;;;;;14.50;11.50;;;;;25.50;44.66;101442.00;4899199;29;45302;-42
2022/07/24 02:55:13;;;;;;;;;12.00;12.00;;;;;25.50;45.10;101446.44;4898544;29;45484;-42
2022/07/24 02:57:38;;;;;;;;;14.75;12.75;;;;;25.48;45.25;101441.25;4898814;29;45435;-41
2022/07/24 03:00:07;;;;;;;;;15.25;11.50;;;;;25.47;45.00;101436.91;4898738;29;45397;-42
2022/07/24 03:02:32;;;;;;;;;12.25;11.00;;;;;25.46;44.62;101441.38;4899125;29;45237;-42
2022/07/24 03:04:58;;;;;;;;;11.50;11.00;;;;;25.45;45.18;101434.38;4898214;29;45374;-41
2022/07/24 03:07:23;;;;;;;;;11.25;11.25;;;;;25.45;44.91;101434.38;4899386;29;45221;-43
2022/07/24 03:09:48;;;;;;;;;12.00;12.00;;;;;25.45;44.50;101430.84;4902096;29;46561;-43
2022/07/24 03:12:13;;;;;;;;;12.75;11.75;;;;;25.43;45.15;101430.09;4902136;29;45785;-39
2022/07/24 03:14:39;;;;;;;;;11.00;10.75;;;;;25.43;45.06;101427.44;4885034;29;46174;-42
2022/07/24 03:17:04;;;;;;;;;11.75;11.75;;;;;25.42;45.10;101433.69;4901778;29;45439;-41
2022/07/24 03:19:30;;;;;;;;;12.25;11.25;;;;;25.41;44.71;101427.53;4902301;28;45754;-42
2022/07/24 03:21:55;;;;;;;;;12.25;12.00;;;;;25.42;44.68;101425.72;4902003;29;45378;-45
2022/07/24 03:24:20;;;;;;;;;15.50;14.50;;;;;25.39;45.15;101421.44;4902208;29;46075;-44
2022/07/24 03:26:46;;;;;;;;;15.50;13.75;;;;;25.39;45.07;101425.91;4900786;29;45513;-45
2022/07/24 03:29:11;;;;;;;;;13.50;13.50;;;;;25.39;45.29;101426.75;4901800;28;45705;-42
2022/07/24 03:31:36;;;;;;;;;11.50;11.50;;;;;25.38;45.18;101430.38;4902095;29;45414;-42
2022/07/24 03:34:02;;;;;;;;;13.50;13.50;;;;;25.39;44.71;101436.53;4901399;28;45366;-39
2022/07/24 03:36:27;;;;;;;;;14.75;13.75;;;;;25.37;44.79;101431.31;4901648;29;45455;-42
2022/07/24 03:38:52;;;;;;;;;14.50;13.00;;;;;25.38;44.71;101429.53;4902133;29;45359;-42
2022/07/24 03:41:18;;;;;;;;;13.25;12.25;;;;;25.37;44.78;101435.78;4901489;29;45392;-42
2022/07/24 03:43:43;;;;;;;;;12.00;12.00;;;;;25.35;44.73;101433.25;4901584;29;45391;-42
2022/07/24 03:46:08;;;;;;;;;12.00;12.00;;;;;25.36;45.07;101428.78;4901402;28;45472;-41
2022/07/24 03:48:34;;;;;;;;;14.00;12.50;;;;;25.34;45.44;101428.88;4901470;29;47427;-42
2022/07/24 03:50:59;;;;;;;;;16.75;15.00;;;;;25.34;44.85;101425.38;4901439;28;45413;-43
2022/07/24 03:53:24;;;;;;;;;16.75;15.00;;;;;25.32;45.64;101431.63;4901491;29;46013;-40
2022/07/24 03:55:50;;;;;;;;;14.00;11.25;;;;;25.31;44.93;101437.88;4901617;29;45391;-41
2022/07/24 03:58:15;;;;;;;;;14.00;13.00;;;;;25.32;45.15;101438.75;4901267;29;45904;-42
2022/07/24 04:00:40;;;;;;;;;16.75;14.00;;;;;25.30;45.63;101428.22;4901646;29;45644;-42
2022/07/24 04:03:06;;;;;;;;;13.00;12.00;;;;;25.28;45.35;101424.84;4900822;29;45399;-43
2022/07/24 04:05:31;;;;;;;;;14.50;12.75;;;;;25.28;45.38;101427.50;4901118;29;45384;-41
2022/07/24 04:07:56;;;;;;;;;18.75;14.75;;;;;25.29;45.39;101436.28;4901080;29;45393;-40
2022/07/24 04:10:22;;;;;;;;;15.25;12.75;;;;;25.27;44.97;101431.09;4901853;29;45404;-42
2022/07/24 04:12:47;;;;;;;;;18.75;14.00;;;;;25.25;44.91;101448.91;4901114;29;46031;-42
2022/07/24 04:15:12;;;;;;;;;12.50;12.00;;;;;25.22;44.98;101445.63;4900851;29;45377;-43
2022/07/24 04:17:40;;;;;;;;;12.75;11.00;;;;;25.17;45.16;101440.63;4901280;29;45295;-41
2022/07/24 04:20:06;;;;;;;;;17.75;12.50;;;;;25.13;45.32;101447.06;4900824;29;45461;-41
2022/07/24 04:22:31;;;;;;;;;13.25;12.25;;;;;25.08;45.72;101449.19;4899599;29;46886;-43
2022/07/24 04:24:56;;;;;;;;;15.75;12.50;;;;;25.03;45.61;101449.44;4900683;29;45404;-40
2022/07/24 04:27:22;;;;;;;;;13.75;12.50;;;;;24.97;45.90;101450.69;4901418;29;45239;-40
2022/07/24 04:29:47;;;;;;;;;15.75;13.25;;;;;24.91;45.87;101451.13;4901142;29;45425;-40
2022/07/24 04:32:12;;;;;;;;;13.50;11.75;;;;;24.88;45.55;101445.16;4900292;29;52616;-40
2022/07/24 04:34:37;;;;;;;;;16.75;16.00;;;;;24.84;45.66;101441.88;4900733;29;45387;-42
2022/07/24 04:37:03;;;;;;;;;13.50;13.00;;;;;24.78;45.80;101445.75;4900375;28;50747;-41
2022/07/24 04:39:28;;;;;;;;;13.25;12.50;;;;;24.73;45.89;101442.53;4901204;29;45381;-41
2022/07/24 04:41:54;;;;;;;;;13.25;13.25;;;;;24.72;46.34;101442.66;4900513;29;46388;-41
2022/07/24 04:44:19;;;;;;;;;15.25;12.50;;;;;24.68;46.17;101450.78;4900884;29;45349;-41
2022/07/24 04:46:44;;;;;;;;;12.00;11.75;;;;;24.65;46.20;101450.94;4900934;29;45280;-41
2022/07/24 04:49:10;;;;;;;;;16.50;16.00;;;;;24.61;46.50;101444.16;4900650;29;45477;-41
2022/07/24 04:51:35;;;;;;;;;17.75;15.00;;;;;24.58;46.67;101438.19;4900506;29;45252;-45
2022/07/24 04:54:00;;;;;;;;;15.25;15.00;;;;;24.55;46.42;101436.56;4900278;29;45353;-46
2022/07/24 04:56:30;;;;;;;;;15.75;13.75;;;;;24.53;46.72;101433.16;4900772;28;45337;-44
2022/07/24 04:58:55;;;;;;;;;16.50;14.25;;;;;24.55;46.96;101441.88;4900582;29;45466;-45
2022/07/24 05:01:21;;;;;;;;;15.00;14.50;;;;;24.55;47.02;101429.50;4900681;29;46461;-48
2022/07/24 05:03:46;;;;;;;;;12.75;11.50;;;;;24.56;46.55;101435.63;4900397;28;45360;-43
2022/07/24 05:06:11;;;;;;;;;17.25;14.00;;;;;24.54;46.92;101434.88;4898573;29;53348;-41
2022/07/24 05:08:36;;;;;;;;;15.25;14.25;;;;;24.53;46.45;101435.81;4900420;28;45398;-40
2022/07/24 05:11:02;;;;;;;;;15.00;13.75;;;;;24.53;46.65;101434.03;4900052;29;46016;-41
2022/07/24 05:13:27;;;;;;;;;19.00;13.00;;;;;24.50;47.03;101428.06;4900118;29;45318;-41
2022/07/24 05:15:55;;;;;;;;;15.75;14.25;;;;;24.49;46.87;101432.50;4900789;29;45351;-41
2022/07/24 05:18:20;;;;;;;;;13.25;12.25;;;;;24.51;46.80;101435.09;4900850;29;45506;-41
2022/07/24 05:20:45;;;;;;;;;14.50;12.00;;;;;24.51;46.74;101440.38;4900077;29;46195;-40
2022/07/24 05:23:10;;;;;;;;;14.00;12.50;;;;;24.51;47.23;101443.03;4899784;29;45351;-43
2022/07/24 05:25:36;;;;;;;;;14.25;14.00;;;;;24.50;47.00;101442.16;4900224;29;45601;-41
2022/07/24 05:28:01;;;;;;;;;14.25;13.50;;;;;24.51;47.04;101443.88;4900180;29;45234;-41
2022/07/24 05:30:27;;;;;;;;;14.50;14.50;;;;;24.52;46.96;101434.13;4899201;29;46372;-40
2022/07/24 05:32:52;;;;;;;;;15.00;13.75;;;;;24.52;46.75;101439.44;4900201;29;45199;-40
2022/07/24 05:35:17;;;;;;;;;14.50;12.00;;;;;24.51;46.28;101438.56;4899817;28;45384;-43
2022/07/24 05:37:43;;;;;;;;;16.25;14.00;;;;;24.52;46.04;101439.44;4900428;29;45173;-43
2022/07/24 05:40:08;;;;;;;;;12.00;10.25;;;;;24.50;45.95;101441.31;4899558;29;45328;-40
2022/07/24 05:42:34;;;;;;;;;14.00;13.00;;;;;24.48;45.71;101437.91;4899955;29;45257;-42
2022/07/24 05:44:59;;;;;;;;;11.75;11.75;;;;;24.48;45.82;101443.22;4899695;29;45294;-40
2022/07/24 05:47:25;;;;;;;;;14.00;12.25;;;;;24.46;46.25;101445.97;4900150;29;45410;-40
2022/07/24 05:49:50;;;;;;;;;11.00;11.00;;;;;24.45;45.76;101444.25;4899938;29;46021;-42
2022/07/24 05:52:15;;;;;;;;;13.00;11.50;;;;;24.44;46.42;101433.75;4898174;29;45299;-41
2022/07/24 05:54:41;;;;;;;;;14.25;13.50;;;;;24.46;45.94;101442.44;4899934;29;45280;-48
2022/07/24 05:57:06;;;;;;;;;14.50;10.75;;;;;24.45;45.93;101435.44;4899809;29;45642;-50
2022/07/24 05:59:31;;;;;;;;;16.00;14.25;;;;;24.44;46.40;101436.41;4899543;28;45468;-49
2022/07/24 06:01:57;;;;;;;;;12.00;12.00;;;;;24.47;46.57;101430.91;4899066;28;56412;-42
2022/07/24 06:04:22;;;;;;;;;13.75;13.75;;;;;24.46;46.26;101438.03;4899700;28;45775;-42
2022/07/24 06:06:47;;;;;;;;;15.25;14.25;;;;;24.47;46.64;101438.84;4899695;29;45541;-42
2022/07/24 06:09:13;;;;;;;;;15.75;15.75;;;;;24.45;46.82;101438.97;4899195;29;46034;-42
2022/07/24 06:11:38;;;;;;;;;16.75;13.75;;;;;24.47;46.84;101430.91;4899562;29;45510;-41
2022/07/24 06:14:04;;;;;;;;;13.25;13.25;;;;;24.47;46.71;101433.56;4899151;29;47132;-42
2022/07/24 06:16:29;;;;;;;;;17.00;15.00;;;;;24.51;46.39;101432.44;4899525;28;45558;-40
2022/07/24 06:18:54;;;;;;;;;13.75;13.25;;;;;24.53;46.33;101422.56;4898853;28;50766;-43
2022/07/24 06:21:20;;;;;;;;;13.75;13.75;;;;;24.57;46.61;101426.72;4897846;29;59231;-40
2022/07/24 06:23:45;;;;;;;;;13.50;13.00;;;;;24.58;47.02;101425.78;4899282;29;45415;-43
2022/07/24 06:26:10;;;;;;;;;13.00;13.00;;;;;24.61;46.94;101422.06;4898070;29;45408;-46
2022/07/24 06:28:36;;;;;;;;;13.75;11.25;;;;;24.63;46.66;101417.53;4898960;28;46111;-45
2022/07/24 06:31:01;;;;;;;;;17.00;15.00;;;;;24.65;46.41;101419.13;4898781;29;45352;-40
2022/07/24 06:33:27;;;;;;;;;18.50;15.75;;;;;24.68;46.38;101416.31;4899205;29;45336;-43
2022/07/24 06:35:52;;;;;;;;;14.50;14.00;;;;;24.70;46.89;101417.09;4899706;29;45227;-41
2022/07/24 06:38:17;;;;;;;;;13.75;12.00;;;;;24.76;46.60;101422.94;4898422;29;55311;-43
2022/07/24 06:40:43;;;;;;;;;15.00;14.25;;;;;24.78;46.75;101416.59;4898769;29;48770;-42
2022/07/24 06:43:08;;;;;;;;;11.25;11.00;;;;;24.82;46.39;101417.25;4897674;29;45858;-44
2022/07/24 06:45:33;;;;;;;;;14.25;13.00;;;;;24.83;47.00;101416.31;4899361;29;45524;-40
2022/07/24 06:48:03;;;;;;;;;12.75;11.25;;;;;24.86;46.96;101408.13;4898699;29;45946;-44
2022/07/24 06:50:28;;;;;;;;;19.00;15.50;;;;;24.89;46.39;101418.53;4898860;29;45906;-40
2022/07/24 06:52:54;;;;;;;;;16.50;15.25;;;;;24.93;46.50;101414.75;4898899;29;45463;-46
2022/07/24 06:55:20;;;;;;;;;17.50;17.50;;;;;24.97;46.75;101423.34;4899476;29;45510;-47
2022/07/24 06:57:45;;;;;;;;;18.75;17.50;;;;;24.95;46.80;101418.16;4898791;29;45383;-47
2022/07/24 07:00:11;;;;;;;;;17.00;15.25;;;;;24.98;46.36;101409.13;4898609;29;45368;-46
2022/07/24 07:02:37;;;;;;;;;18.00;16.50;;;;;25.00;46.98;101413.38;4898925;29;45377;-47
2022/07/24 07:05:05;;;;;;;;;15.25;14.25;;;;;25.03;46.42;101411.50;4897436;29;45506;-48
2022/07/24 07:07:31;;;;;;;;;17.25;15.75;;;;;25.04;46.36;101410.53;4897548;29;46055;-47
2022/07/24 07:09:56;;;;;;;;;16.50;16.50;;;;;25.06;46.75;101413.94;4897239;29;45492;-52
2022/07/24 07:12:21;;;;;;;;;17.00;15.75;;;;;25.09;46.92;101411.06;4897936;29;45446;-52
2022/07/24 07:14:47;;;;;;;;;16.75;15.25;;;;;25.12;46.91;101416.19;4897788;29;45352;-51
2022/07/24 07:17:12;;;;;;;;;14.00;13.25;;;;;25.13;46.45;101405.50;4897091;29;45833;-46
2022/07/24 07:19:38;;;;;;;;;18.25;17.75;;;;;25.16;46.77;101415.03;4897346;29;45281;-47
2022/07/24 07:22:03;;;;;;;;;16.25;16.00;;;;;25.18;46.95;101415.78;4897387;29;45471;-48
2022/07/24 07:24:28;;;;;;;;;19.25;15.50;;;;;25.22;46.60;101419.09;4897563;29;45326;-46
2022/07/24 07:26:54;;;;;;;;;17.50;16.50;;;;;25.24;47.00;101412.72;4897017;29;46074;-48
2022/07/24 07:29:19;;;;;;;;;17.25;16.00;;;;;25.26;46.44;101413.47;4897378;29;45893;-46
2022/07/24 07:31:45;;;;;;;;;17.50;16.00;;;;;25.28;46.99;101408.91;4897388;29;45422;-50
2022/07/24 07:34:10;;;;;;;;;18.25;16.75;;;;;25.32;46.93;101412.22;4897285;29;45418;-48
2022/07/24 07:36:35;;;;;;;;;21.00;16.75;;;;;25.36;46.66;101415.50;4899033;29;46087;-51
2022/07/24 07:39:01;;;;;;;;;17.00;16.25;;;;;25.39;46.53;101402.03;4895716;29;45313;-49
2022/07/24 07:41:26;;;;;;;;;22.50;21.00;;;;;25.41;47.12;101408.13;4897132;29;45263;-47
2022/07/24 07:43:52;;;;;;;;;18.00;17.00;;;;;25.43;46.22;101401.75;4897523;29;45523;-50
2022/07/24 07:46:18;;;;;;;;;18.75;18.75;;;;;25.45;46.35;101402.50;4896813;29;46041;-47
2022/07/24 07:48:43;;;;;;;;;16.75;16.75;;;;;25.48;46.52;101404.09;4897157;29;45648;-49
2022/07/24 07:51:08;;;;;;;;;19.00;18.25;;;;;25.51;46.55;101406.56;4897206;29;45857;-46
2022/07/24 07:53:34;;;;;;;;;18.00;17.25;;;;;25.52;46.62;101402.91;4898025;29;45366;-45
2022/07/24 07:56:01;;;;;;;;;17.50;16.25;;;;;25.56;46.65;101399.13;4900212;29;45352;-48
2022/07/24 07:58:27;;;;;;;;;17.50;15.25;;;;;25.59;46.70;101398.03;4900519;29;45861;-47
2022/07/24 08:00:52;;;;;;;;;19.75;18.50;;;;;25.62;46.36;101404.03;4900638;29;45475;-48
2022/07/24 08:03:18;;;;;;;;;18.75;17.25;;;;;25.62;46.82;101398.72;4862620;29;1107402;-48
2022/07/24 08:05:43;;;;;;;;;17.50;15.75;;;;;25.63;46.89;101395.06;4901165;29;45439;-48
2022/07/24 08:08:09;;;;;;;;;19.25;19.00;;;;;25.66;46.68;101388.72;4900965;29;45403;-44
2022/07/24 08:10:34;;;;;;;;;18.25;17.50;;;;;25.68;46.35;101393.91;4901396;29;45474;-47
2022/07/24 08:12:59;;;;;;;;;16.50;16.00;;;;;25.68;46.60;101388.63;4901237;29;45526;-46
2022/07/24 08:15:25;;;;;;;;;19.75;17.75;;;;;25.69;46.47;101385.84;4901073;29;46394;-45
2022/07/24 08:17:55;;;;;;;;;16.75;16.75;;;;;25.70;46.32;101387.53;4901252;29;45265;-49
2022/07/24 08:20:22;;;;;;;;;20.00;18.25;;;;;25.72;46.76;101387.47;4901561;29;45332;-48
2022/07/24 08:22:47;;;;;;;;;19.00;17.25;;;;;25.72;46.59;101382.16;4901296;28;45505;-47
2022/07/24 08:25:13;;;;;;;;;17.00;16.25;;;;;25.72;46.86;101387.47;4900471;29;47273;-45
2022/07/24 08:27:38;;;;;;;;;20.50;18.25;;;;;25.73;46.18;101379.38;4899737;29;45316;-44
2022/07/24 08:30:08;;;;;;;;;20.50;17.50;;;;;25.79;46.66;101383.41;4900869;29;45350;-46
2022/07/24 08:32:33;;;;;;;;;21.75;20.50;;;;;25.76;46.91;101375.66;4901230;29;45676;-49
2022/07/24 15:28:25;;;;;;;;;9.75;9.75;;;;;26.77;40.29;100890.75;5174639;23;46268;-52
2022/07/24 15:30:51;;;;;;;;;10.25;9.00;;;;;26.81;40.06;100892.25;4901871;28;45263;-51
2022/07/24 15:33:16;;;;;;;;;8.00;8.00;;;;;26.81;40.27;100888.72;4901949;29;45237;-51
2022/07/24 15:35:41;;;;;;;;;9.75;7.75;;;;;26.82;40.18;100880.63;4902062;28;45655;-52
2022/07/24 15:38:07;;;;;;;;;10.00;9.00;;;;;26.83;40.29;100879.66;4901753;29;46539;-49
2022/07/24 15:40:32;;;;;;;;;10.00;9.00;;;;;26.85;40.03;100877.72;4902143;28;45401;-49
2022/07/24 15:42:58;;;;;;;;;9.50;8.75;;;;;26.87;40.19;100871.41;4901731;29;45364;-48
2022/07/24 15:45:24;;;;;;;;;11.00;10.75;;;;;26.88;40.00;100867.78;4902101;29;45328;-48
2022/07/24 15:47:50;;;;;;;;;9.50;9.50;;;;;26.87;40.13;100868.75;4900419;29;47733;-52
2022/07/24 15:50:17;;;;;;;;;10.00;9.50;;;;;26.88;40.14;100870.44;4901474;29;45734;-48
2022/07/24 15:52:42;;;;;;;;;12.00;10.25;;;;;26.88;39.98;100865.13;4901922;29;45409;-50
2022/07/24 15:55:08;;;;;;;;;13.75;10.75;;;;;26.88;39.98;100865.13;4902030;29;45662;-50
2022/07/24 15:57:33;;;;;;;;;8.50;8.50;;;;;26.88;40.15;100855.34;4901999;29;46219;-51
2022/07/24 15:59:59;;;;;;;;;11.00;9.25;;;;;26.89;39.79;100853.53;4901312;29;49497;-52
2022/07/24 16:02:24;;;;;;;;;9.00;9.00;;;;;26.90;40.17;100849.91;4901937;29;45405;-54
2022/07/24 16:04:50;;;;;;;;;8.75;8.50;;;;;26.88;39.71;100847.38;4901760;28;45618;-48
2022/07/24 16:07:16;;;;;;;;;9.00;9.00;;;;;26.90;40.14;100844.59;4901206;28;46437;-53
2022/07/24 16:09:42;;;;;;;;;10.50;9.00;;;;;26.91;39.78;100851.59;4901466;28;45353;-53
2022/07/24 16:12:08;;;;;;;;;11.00;8.50;;;;;26.93;39.93;100852.31;4901709;29;45463;-48
2022/07/24 16:14:34;;;;;;;;;12.00;9.00;;;;;26.93;40.26;100841.69;4901685;28;45284;-50
2022/07/24 16:16:59;;;;;;;;;13.00;11.25;;;;;26.93;39.87;100836.38;4901165;28;45464;-49
2022/07/24 16:19:25;;;;;;;;;11.75;10.50;;;;;26.92;39.88;100830.19;4901405;29;45375;-50
2022/07/24 16:21:51;;;;;;;;;10.00;9.75;;;;;26.95;39.94;100829.09;4901366;28;45495;-49
2022/07/24 16:24:16;;;;;;;;;9.75;9.25;;;;;26.95;39.86;100821.13;4901292;29;45637;-48
2022/07/24 16:26:41;;;;;;;;;10.50;10.00;;;;;26.93;39.84;100812.44;4901082;29;46511;-49
2022/07/24 16:29:07;;;;;;;;;10.00;10.00;;;;;26.92;39.81;100808.91;4901262;29;45306;-48
2022/07/24 16:31:32;;;;;;;;;10.00;10.00;;;;;26.93;39.82;100805.28;4901547;29;45452;-54
2022/07/24 16:33:58;;;;;;;;;9.75;9.75;;;;;26.94;39.85;100800.81;4901146;29;45458;-51
2022/07/24 16:36:23;;;;;;;;;11.25;10.00;;;;;26.92;39.78;100797.44;4901005;29;46413;-51
2022/07/24 16:38:49;;;;;;;;;9.75;8.00;;;;;26.93;39.90;100794.63;4900937;29;45550;-53
2022/07/24 16:41:16;;;;;;;;;9.25;9.25;;;;;26.95;39.64;100799.84;4901110;28;45369;-55
2022/07/24 16:43:42;;;;;;;;;10.00;10.00;;;;;26.93;39.84;100794.63;4901232;29;45454;-55
2022/07/24 16:46:07;;;;;;;;;11.50;11.50;;;;;26.93;39.41;100784.00;4900759;29;45434;-53
2022/07/24 16:48:33;;;;;;;;;8.25;8.25;;;;;26.92;39.65;100782.31;4899526;29;45323;-50
2022/07/24 16:50:58;;;;;;;;;10.00;8.00;;;;;26.92;39.55;100782.31;4900896;29;45624;-51
2022/07/24 16:53:24;;;;;;;;;9.50;8.50;;;;;26.92;39.91;100777.00;4901036;29;45670;-51
2022/07/24 16:55:49;;;;;;;;;12.25;10.75;;;;;26.91;39.55;100780.63;4900646;28;46767;-52
2022/07/24 16:58:14;;;;;;;;;10.00;10.00;;;;;26.91;39.92;100783.28;4900172;29;50225;-59
2022/07/24 17:00:40;;;;;;;;;12.50;10.00;;;;;26.92;39.55;100773.50;4901156;29;45482;-60
2022/07/24 17:03:05;;;;;;;;;9.00;9.00;;;;;26.92;39.71;100784.97;4900838;29;45306;-54
2022/07/24 17:05:30;;;;;;;;;10.50;9.25;;;;;26.91;39.79;100769.16;4900609;29;45344;-57
2022/07/24 17:07:56;;;;;;;;;10.00;10.00;;;;;26.92;39.82;100766.34;4900264;29;45398;-52
2022/07/24 17:10:21;;;;;;;;;9.25;9.25;;;;;26.92;39.61;100766.34;4899447;28;45345;-50
2022/07/24 17:12:47;;;;;;;;;10.00;10.00;;;;;26.92;39.88;100757.53;4900756;29;45395;-53
2022/07/24 17:15:12;;;;;;;;;9.50;9.25;;;;;26.92;39.72;100758.38;4900189;28;45389;-50
2022/07/24 17:20:22;;;;;;;;;13.00;10.00;;;;;26.91;39.54;100754.03;4900719;28;45434;-52
2022/07/24 17:22:47;;;;;;;;;10.00;10.00;;;;;26.93;39.67;100746.78;4900731;29;45352;-55
2022/07/24 17:25:12;;;;;;;;;10.00;10.00;;;;;26.93;39.78;100740.63;4900069;28;45347;-55
2022/07/24 17:27:38;;;;;;;;;9.50;9.50;;;;;26.92;39.70;100749.56;4898525;29;45809;-57
2022/07/24 17:30:05;;;;;;;;;11.50;10.50;;;;;26.93;39.76;100740.63;4900238;29;45353;-52
2022/07/24 17:32:30;;;;;;;;;10.00;9.25;;;;;26.91;39.60;100735.41;4900470;29;45471;-51
2022/07/24 17:34:56;;;;;;;;;8.75;7.25;;;;;26.92;39.85;100734.44;4899914;29;45424;-52
2022/07/24 17:37:21;;;;;;;;;11.00;8.50;;;;;26.91;40.00;100734.59;4900215;28;45390;-55
2022/07/24 17:39:46;;;;;;;;;9.50;9.50;;;;;26.92;39.38;100738.94;4900229;29;45439;-51
2022/07/24 17:42:12;;;;;;;;;7.50;7.50;;;;;26.95;39.43;100734.19;4900147;28;45675;-53
2022/07/24 17:44:38;;;;;;;;;7.00;7.00;;;;;26.99;39.69;100737.44;4900250;28;45276;-51
2022/07/24 17:47:04;;;;;;;;;8.50;7.75;;;;;27.00;39.74;100732.00;4899973;29;46377;-55
2022/07/24 17:49:29;;;;;;;;;9.00;9.00;;;;;27.03;39.59;100728.22;4900052;29;45395;-52
2022/07/24 17:51:54;;;;;;;;;11.50;9.00;;;;;27.05;39.52;100734.25;4899993;29;45478;-55
2022/07/24 17:54:20;;;;;;;;;8.75;8.50;;;;;27.08;40.08;100733.16;4898438;28;47044;-62
2022/07/24 17:56:46;;;;;;;;;8.50;8.50;;;;;27.09;39.64;100729.53;4898612;29;45444;-53
2022/07/24 17:59:11;;;;;;;;;9.00;9.00;;;;;27.08;39.88;100723.34;4899804;29;45390;-52